Time;durP1;ratioP1;P1;durP2;ratioP2;P2;SDS_P1;SDS_P2;PMS_P1;PMS_P2;Temp;Humidity;BMP_temperature;BMP_pressure;BME280_temperature;BME280_humidity;BME280_pressure;Samples;Min_cycle;Max_cycle;Signal;HPM_P1;HPM_P2
2022/12/27 00:00:43;;;;;;;3.60;2.20;;;9.00;99.90;;;;;;5093046;28;20230;-77
2022/12/27 00:03:10;;;;;;;5.95;2.70;;;9.00;99.90;;;;;;5092164;28;20308;-77
2022/12/27 00:05:37;;;;;;;9.75;3.40;;;9.00;99.90;;;;;;5092615;28;20249;-77
2022/12/27 00:08:05;;;;;;;8.52;2.45;;;9.00;99.90;;;;;;5092969;28;20215;-77
2022/12/27 00:10:36;;;;;;;5.85;2.55;;;9.00;99.90;;;;;;5091996;28;20318;-79
2022/12/27 00:13:04;;;;;;;10.75;4.50;;;9.00;99.90;;;;;;5092470;28;20422;-79
2022/12/27 00:15:31;;;;;;;8.00;2.20;;;9.00;99.90;;;;;;5085188;28;20212;-79
2022/12/27 00:17:59;;;;;;;7.78;4.10;;;8.90;99.90;;;;;;5105771;28;20737;-79
2022/12/27 00:20:26;;;;;;;7.05;3.38;;;8.90;99.90;;;;;;5092230;28;20395;-78
2022/12/27 00:22:53;;;;;;;8.57;3.75;;;8.80;99.90;;;;;;5092817;28;20220;-79
2022/12/27 00:25:22;;;;;;;4.35;2.97;;;8.80;99.90;;;;;;5082318;28;20231;-78
2022/12/27 00:27:49;;;;;;;15.07;8.23;;;8.80;99.90;;;;;;5106334;28;20721;-79
2022/12/27 00:30:16;;;;;;;13.98;4.70;;;8.70;99.90;;;;;;5089765;28;20254;-78
2022/12/27 00:32:43;;;;;;;9.68;5.68;;;8.70;99.90;;;;;;5091204;28;20307;-77
2022/12/27 00:35:10;;;;;;;8.07;3.28;;;8.70;99.90;;;;;;5092628;28;20223;-77
2022/12/27 00:37:37;;;;;;;12.30;5.82;;;8.70;99.90;;;;;;5092220;28;20261;-79
2022/12/27 00:40:05;;;;;;;2.30;2.03;;;8.70;99.90;;;;;;5093324;28;20229;-79
2022/12/27 00:42:34;;;;;;;12.15;6.50;;;8.60;99.90;;;;;;5091606;28;20676;-77
2022/12/27 00:45:02;;;;;;;14.25;7.70;;;8.60;99.90;;;;;;5093162;28;20223;-77
2022/12/27 00:47:30;;;;;;;7.43;2.53;;;8.60;99.90;;;;;;5091274;28;20703;-78
2022/12/27 00:49:57;;;;;;;8.30;5.55;;;8.50;99.90;;;;;;5092248;28;20238;-79
2022/12/27 00:52:24;;;;;;;10.23;3.75;;;8.50;99.90;;;;;;5092892;28;20572;-77
2022/12/27 00:54:51;;;;;;;5.03;3.30;;;8.50;99.90;;;;;;5093121;28;20251;-79
2022/12/27 00:57:19;;;;;;;7.70;2.95;;;8.40;99.90;;;;;;5092142;28;20227;-78
2022/12/27 00:59:48;;;;;;;4.60;2.35;;;8.50;99.90;;;;;;5092934;28;20224;-79
2022/12/27 01:02:15;;;;;;;8.00;3.00;;;8.40;99.90;;;;;;5092945;28;20238;-79
2022/12/27 01:04:42;;;;;;;8.48;5.20;;;8.40;99.90;;;;;;5092536;28;20219;-79
2022/12/27 01:07:09;;;;;;;30.35;15.90;;;8.40;99.90;;;;;;5092076;28;20284;-79
2022/12/27 01:09:36;;;;;;;15.30;4.82;;;8.30;99.90;;;;;;5083853;28;20314;-79
2022/12/27 01:12:03;;;;;;;6.68;3.20;;;8.30;99.90;;;;;;5086572;28;20505;-78
2022/12/27 01:14:34;;;;;;;4.43;1.95;;;8.30;99.90;;;;;;5103346;28;20229;-79
2022/12/27 01:17:02;;;;;;;10.15;5.15;;;8.30;99.90;;;;;;5091870;28;20228;-76
2022/12/27 01:19:29;;;;;;;9.40;4.20;;;8.30;99.90;;;;;;5092110;28;20234;-78
2022/12/27 01:21:57;;;;;;;8.02;2.20;;;8.20;99.90;;;;;;5092225;28;20306;-78
2022/12/27 01:24:33;;;;;;;8.02;3.05;;;8.20;99.90;;;;;;5092342;28;20316;-79
2022/12/27 01:27:00;;;;;;;15.82;7.25;;;8.10;99.90;;;;;;5090707;28;20219;-77
2022/12/27 01:29:27;;;;;;;8.45;4.22;;;8.10;99.90;;;;;;5092232;28;20271;-78
2022/12/27 01:31:55;;;;;;;8.65;5.25;;;8.10;99.90;;;;;;5091710;28;20235;-77
2022/12/27 01:34:23;;;;;;;8.40;2.83;;;8.00;99.90;;;;;;5092317;28;20348;-78
2022/12/27 01:36:50;;;;;;;5.18;2.67;;;8.00;99.90;;;;;;5091544;28;20242;-79
2022/12/27 01:39:17;;;;;;;12.65;5.78;;;7.90;99.90;;;;;;5095366;28;20238;-77
2022/12/27 01:45:00;;;;;;;14.90;4.70;;;7.80;99.90;;;;;;5100523;28;20230;-77
2022/12/27 01:47:38;;;;;;;11.43;3.30;;;7.80;99.90;;;;;;5096130;28;20227;-79
2022/12/27 01:50:22;;;;;;;11.45;5.30;;;7.80;99.90;;;;;;5095855;28;20238;-79
2022/12/27 01:52:54;;;;;;;19.45;3.90;;;7.80;99.90;;;;;;5095738;28;20314;-77
2022/12/27 01:55:28;;;;;;;12.65;3.95;;;7.70;99.90;;;;;;5099503;28;20642;-77
2022/12/27 01:57:58;;;;;;;11.45;7.38;;;7.60;99.90;;;;;;5094868;28;20219;-78
2022/12/27 02:00:26;;;;;;;5.50;3.25;;;7.60;99.90;;;;;;5095472;27;20255;-77
2022/12/27 02:02:53;;;;;;;7.25;2.53;;;7.60;99.90;;;;;;5094508;28;20261;-78
2022/12/27 02:05:24;;;;;;;10.82;3.63;;;7.50;99.90;;;;;;5085818;28;20231;-77
2022/12/27 02:08:02;;;;;;;7.32;3.15;;;7.60;99.90;;;;;;5094377;28;20235;-77
2022/12/27 02:10:33;;;;;;;7.88;3.53;;;7.60;99.90;;;;;;5094674;28;20517;-77
2022/12/27 02:13:04;;;;;;;7.25;3.15;;;7.50;99.90;;;;;;5094695;28;20219;-77
2022/12/27 02:15:34;;;;;;;5.55;3.22;;;7.50;99.90;;;;;;5096132;28;20315;-78
2022/12/27 02:18:02;;;;;;;12.93;5.45;;;7.50;99.90;;;;;;5093848;28;20617;-77
2022/12/27 02:20:38;;;;;;;7.88;3.45;;;7.40;99.90;;;;;;5095899;28;20220;-77
2022/12/27 02:26:49;;;;;;;9.38;3.38;;;7.50;99.90;;;;;;5096034;28;20230;-77
2022/12/27 02:29:38;;;;;;;5.70;1.92;;;7.40;99.90;;;;;;5061690;28;20219;-79
2022/12/27 02:32:09;;;;;;;5.00;2.00;;;7.40;99.90;;;;;;5094353;28;20308;-78
2022/12/27 02:34:50;;;;;;;7.05;1.80;;;7.40;99.90;;;;;;5084311;28;20230;-77
2022/12/27 02:37:20;;;;;;;6.95;1.85;;;7.40;99.90;;;;;;5093149;28;20215;-79
2022/12/27 02:39:49;;;;;;;10.55;2.13;;;7.40;99.90;;;;;;5094505;28;20585;-77
2022/12/27 02:53:59;;;;;;;6.25;2.22;;;7.40;99.90;;;;;;5052168;28;20212;-79
2022/12/27 02:59:36;;;;;;;5.15;2.55;;;7.30;99.90;;;;;;5082650;28;20276;-77
2022/12/27 03:05:12;;;;;;;8.80;2.45;;;7.30;99.90;;;;;;5095193;28;20226;-78
2022/12/27 03:07:50;;;;;;;4.40;3.08;;;7.30;99.90;;;;;;5094071;28;20231;-76
2022/12/27 03:16:20;;;;;;;5.22;2.08;;;7.20;99.90;;;;;;5093033;28;20246;-77
2022/12/27 03:19:01;;;;;;;6.70;2.05;;;7.20;99.90;;;;;;5093560;28;20227;-78
2022/12/27 03:27:10;;;;;;;6.30;4.53;;;7.20;99.90;;;;;;5084111;28;20307;-77
2022/12/27 03:35:16;;;;;;;8.18;2.75;;;7.10;99.90;;;;;;5093982;28;20660;-77
2022/12/27 03:38:01;;;;;;;6.00;2.42;;;7.20;99.90;;;;;;5093162;28;20229;-78
2022/12/27 03:43:28;;;;;;;7.22;3.22;;;7.10;99.90;;;;;;5081903;28;20230;-79
2022/12/27 03:49:00;;;;;;;5.15;2.97;;;7.10;99.90;;;;;;5094668;28;20222;-78
2022/12/27 03:51:35;;;;;;;3.47;2.42;;;7.10;99.90;;;;;;5093516;28;20215;-77
2022/12/27 03:54:07;;;;;;;11.95;6.65;;;7.10;99.90;;;;;;5096180;28;20227;-78
2022/12/27 03:56:34;;;;;;;7.43;2.35;;;7.10;99.90;;;;;;5095559;28;20652;-77
2022/12/27 03:59:03;;;;;;;3.03;2.40;;;7.10;99.90;;;;;;5098014;28;20231;-78
2022/12/27 04:01:30;;;;;;;6.85;2.38;;;7.10;99.90;;;;;;5093921;28;20223;-78
2022/12/27 04:03:57;;;;;;;6.15;2.70;;;7.00;99.90;;;;;;5094349;28;20230;-79
2022/12/27 04:06:24;;;;;;;10.18;3.20;;;7.10;99.90;;;;;;5093820;28;20566;-79
2022/12/27 04:36:30;;;;;;;8.15;4.75;;;7.10;99.90;;;;;;5091952;28;20234;-76
2022/12/27 04:38:57;;;;;;;8.00;4.72;;;7.10;99.90;;;;;;5092878;28;20550;-76
2022/12/27 04:55:22;;;;;;;9.02;3.28;;;7.10;99.90;;;;;;5092362;28;20221;-77
2022/12/27 04:57:52;;;;;;;8.55;2.83;;;7.00;99.90;;;;;;5092319;28;20222;-77
2022/12/27 05:03:07;;;;;;;5.43;3.60;;;7.10;99.90;;;;;;5093231;28;20678;-77
2022/12/27 05:05:37;;;;;;;4.60;3.13;;;7.10;99.90;;;;;;5092759;28;20227;-77
2022/12/27 05:14:00;;;;;;;8.63;3.28;;;7.00;99.90;;;;;;5096836;28;20234;-78
2022/12/27 05:16:28;;;;;;;5.95;4.25;;;7.00;99.90;;;;;;5096883;28;20288;-78
2022/12/27 05:18:55;;;;;;;5.38;2.88;;;7.00;99.90;;;;;;5095771;28;20270;-77
2022/12/27 05:21:23;;;;;;;12.70;3.60;;;7.10;99.90;;;;;;5094757;28;20231;-77
2022/12/27 05:26:38;;;;;;;6.57;2.95;;;7.00;99.90;;;;;;5095854;28;20222;-79
2022/12/27 05:29:10;;;;;;;8.52;3.00;;;7.00;99.90;;;;;;5096132;28;20243;-79
2022/12/27 05:31:38;;;;;;;11.65;3.63;;;7.10;99.90;;;;;;5096508;28;20228;-79
2022/12/27 05:34:07;;;;;;;8.63;5.03;;;7.10;99.90;;;;;;5095905;28;20235;-79
2022/12/27 05:36:34;;;;;;;10.55;3.75;;;7.10;99.90;;;;;;5095045;28;20235;-79
2022/12/27 05:39:01;;;;;;;2.80;2.05;;;7.10;99.90;;;;;;5096195;28;20252;-77
2022/12/27 05:41:29;;;;;;;8.88;2.88;;;7.10;99.90;;;;;;5095608;28;20234;-79
2022/12/27 05:43:58;;;;;;;6.90;2.28;;;7.10;99.90;;;;;;5095392;28;20225;-77
2022/12/27 05:46:26;;;;;;;11.45;4.53;;;7.20;99.90;;;;;;5095891;28;20215;-79
2022/12/27 05:48:54;;;;;;;2.75;2.42;;;7.20;99.90;;;;;;5095075;28;20581;-79
2022/12/27 05:51:21;;;;;;;4.65;2.67;;;7.20;99.90;;;;;;5096025;28;20227;-78
2022/12/27 05:53:49;;;;;;;4.32;2.67;;;7.20;99.90;;;;;;5095471;28;20243;-79
2022/12/27 05:56:22;;;;;;;5.00;2.25;;;7.20;99.90;;;;;;5095670;28;20617;-78
2022/12/27 05:58:52;;;;;;;13.45;3.20;;;7.10;99.90;;;;;;5094709;28;20239;-77
2022/12/27 06:01:19;;;;;;;3.88;2.83;;;7.20;99.90;;;;;;5095385;28;20286;-78
2022/12/27 06:03:47;;;;;;;4.82;3.25;;;7.20;99.90;;;;;;5095561;28;20281;-77
2022/12/27 06:06:17;;;;;;;16.45;7.25;;;7.20;99.90;;;;;;5095431;28;20247;-79
2022/12/27 06:08:43;;;;;;;11.75;5.85;;;7.20;99.90;;;;;;5094104;28;20237;-77
2022/12/27 06:11:12;;;;;;;3.15;2.15;;;7.20;99.90;;;;;;5094637;28;20227;-77
2022/12/27 06:13:40;;;;;;;5.82;3.10;;;7.20;99.90;;;;;;5094147;28;20310;-77
2022/12/27 06:16:09;;;;;;;8.20;3.15;;;7.20;99.90;;;;;;5095651;28;20238;-79
2022/12/27 06:18:38;;;;;;;15.15;7.28;;;7.20;99.90;;;;;;5095329;28;20242;-77
2022/12/27 06:21:10;;;;;;;4.57;2.60;;;7.30;99.90;;;;;;5094259;28;20230;-77
2022/12/27 06:23:38;;;;;;;4.78;2.60;;;7.20;99.90;;;;;;5094616;28;20308;-77
2022/12/27 06:26:07;;;;;;;14.43;5.65;;;7.30;99.90;;;;;;5094557;28;20215;-79
2022/12/27 06:28:34;;;;;;;9.45;5.88;;;7.20;99.90;;;;;;5095549;28;20223;-79
2022/12/27 06:31:01;;;;;;;3.42;2.33;;;7.20;99.90;;;;;;5096102;28;20238;-79
2022/12/27 06:33:29;;;;;;;6.72;3.38;;;7.20;99.90;;;;;;5096512;28;20223;-79
2022/12/27 06:35:56;;;;;;;3.17;2.00;;;7.20;99.90;;;;;;5096023;28;20266;-79
2022/12/27 06:38:25;;;;;;;6.15;1.88;;;7.20;99.90;;;;;;5096360;28;20227;-80
2022/12/27 06:40:52;;;;;;;4.00;1.98;;;7.20;99.90;;;;;;5095581;28;20258;-79
2022/12/27 06:43:20;;;;;;;3.80;2.42;;;7.20;99.90;;;;;;5096348;28;20642;-79
2022/12/27 06:45:56;;;;;;;3.63;1.73;;;7.20;99.90;;;;;;5095535;28;20303;-79
2022/12/27 06:48:29;;;;;;;2.35;1.83;;;7.20;99.90;;;;;;5096113;28;20253;-79
2022/12/27 06:50:58;;;;;;;4.18;3.22;;;7.20;99.90;;;;;;5095075;28;20232;-78
2022/12/27 06:53:26;;;;;;;7.40;2.97;;;7.20;99.90;;;;;;5095937;28;20252;-79
2022/12/27 06:55:53;;;;;;;5.28;1.88;;;7.20;99.90;;;;;;5097788;28;20571;-79
2022/12/27 06:58:20;;;;;;;4.20;2.40;;;7.10;99.90;;;;;;5098286;28;20223;-79
2022/12/27 07:00:50;;;;;;;6.35;2.33;;;7.10;99.90;;;;;;5096389;28;20219;-79
2022/12/27 07:03:21;;;;;;;8.48;3.17;;;7.20;99.90;;;;;;5095405;28;20224;-79
2022/12/27 07:05:51;;;;;;;2.63;2.33;;;7.20;99.90;;;;;;5097665;28;20242;-77
2022/12/27 07:08:18;;;;;;;4.03;2.63;;;7.10;99.90;;;;;;5097005;28;20661;-76
2022/12/27 07:10:46;;;;;;;11.05;2.80;;;7.20;99.90;;;;;;5095744;28;20258;-77
2022/12/27 07:13:13;;;;;;;7.43;2.35;;;7.20;99.90;;;;;;5094370;28;20227;-78
2022/12/27 07:15:40;;;;;;;7.80;5.30;;;7.10;99.90;;;;;;5094818;28;20223;-76
2022/12/27 07:18:09;;;;;;;8.63;4.63;;;7.20;99.90;;;;;;5095595;28;20219;-76
2022/12/27 07:20:37;;;;;;;6.75;4.05;;;7.20;99.90;;;;;;5095793;28;20233;-78
2022/12/27 07:23:04;;;;;;;5.60;3.42;;;7.20;99.90;;;;;;5094869;28;20298;-78
2022/12/27 07:25:32;;;;;;;3.05;1.80;;;7.20;99.90;;;;;;5095002;28;20557;-78
2022/12/27 07:28:00;;;;;;;8.82;5.85;;;7.10;99.90;;;;;;5094775;28;20220;-76
2022/12/27 07:30:28;;;;;;;8.73;2.60;;;7.10;99.90;;;;;;5096128;28;20344;-79
2022/12/27 07:32:58;;;;;;;15.27;9.15;;;7.20;99.90;;;;;;5095825;28;20665;-77
2022/12/27 07:35:28;;;;;;;2.88;1.40;;;7.20;99.90;;;;;;5095226;28;20293;-77
2022/12/27 07:37:55;;;;;;;4.45;2.80;;;7.20;99.90;;;;;;5096657;28;20223;-77
2022/12/27 07:40:22;;;;;;;6.10;2.17;;;7.20;99.90;;;;;;5087876;28;20334;-78
2022/12/27 07:42:52;;;;;;;8.23;4.50;;;7.20;99.90;;;;;;5105283;28;20243;-78
2022/12/27 07:45:22;;;;;;;3.28;2.85;;;7.10;99.90;;;;;;5093160;28;20553;-78
2022/12/27 07:47:49;;;;;;;6.43;3.80;;;7.10;99.90;;;;;;5096018;28;20305;-78
2022/12/27 07:50:16;;;;;;;7.38;2.55;;;7.10;99.90;;;;;;5093477;28;20254;-77
2022/12/27 07:52:43;;;;;;;5.18;2.40;;;7.20;99.90;;;;;;5095437;28;20227;-77
2022/12/27 07:55:10;;;;;;;4.63;1.70;;;7.20;99.90;;;;;;5094593;28;20223;-76
2022/12/27 07:57:37;;;;;;;5.32;3.67;;;7.20;99.90;;;;;;5093560;28;20211;-78
2022/12/27 08:00:08;;;;;;;5.72;2.40;;;7.20;99.90;;;;;;5092579;28;20284;-78
2022/12/27 08:02:36;;;;;;;3.72;2.38;;;7.20;99.90;;;;;;5093535;28;20215;-78
2022/12/27 08:05:03;;;;;;;7.47;2.15;;;7.20;99.90;;;;;;5092722;28;20223;-77
2022/12/27 08:07:30;;;;;;;2.95;2.33;;;7.20;99.90;;;;;;5093061;28;20606;-78
2022/12/27 08:09:59;;;;;;;3.97;2.58;;;7.20;99.90;;;;;;5091667;28;20254;-77
2022/12/27 08:12:26;;;;;;;5.30;2.65;;;7.20;99.90;;;;;;5092626;28;20303;-78
2022/12/27 08:14:53;;;;;;;7.75;2.63;;;7.20;99.90;;;;;;5092664;28;20231;-77
2022/12/27 08:17:26;;;;;;;4.07;3.05;;;7.20;99.90;;;;;;5092258;28;20219;-77
2022/12/27 08:19:56;;;;;;;7.30;2.75;;;7.20;99.90;;;;;;5093121;28;20235;-78
2022/12/27 08:22:24;;;;;;;3.08;2.10;;;7.20;99.90;;;;;;5083602;28;20353;-78
2022/12/27 08:24:51;;;;;;;3.05;1.88;;;7.30;99.90;;;;;;5093360;28;20219;-78
2022/12/27 08:27:23;;;;;;;3.08;1.70;;;7.20;99.90;;;;;;5091847;28;20362;-76
2022/12/27 08:29:50;;;;;;;4.60;2.72;;;7.20;99.90;;;;;;5093223;28;20310;-79
2022/12/27 08:32:19;;;;;;;11.23;4.38;;;7.30;99.90;;;;;;5092230;28;20261;-78
2022/12/27 08:34:46;;;;;;;7.05;5.47;;;7.30;99.90;;;;;;5092611;28;20250;-78
2022/12/27 08:37:15;;;;;;;9.63;4.95;;;7.30;99.90;;;;;;5091850;28;20234;-78
2022/12/27 08:39:41;;;;;;;11.20;4.28;;;7.40;99.90;;;;;;5093331;28;20219;-76
2022/12/27 08:42:11;;;;;;;6.15;4.25;;;7.40;99.90;;;;;;5092583;28;20281;-78
2022/12/27 08:44:38;;;;;;;6.18;3.40;;;7.40;99.90;;;;;;5084085;28;20365;-77
2022/12/27 08:47:12;;;;;;;13.27;4.65;;;7.40;99.90;;;;;;5107302;28;20680;-76
2022/12/27 08:49:39;;;;;;;7.13;3.28;;;7.50;99.90;;;;;;5095205;28;20721;-76
2022/12/27 08:52:06;;;;;;;7.15;3.42;;;7.50;99.90;;;;;;5097273;28;20235;-78
2022/12/27 08:54:37;;;;;;;4.40;2.50;;;7.50;99.90;;;;;;5096322;28;20223;-78
2022/12/27 08:57:05;;;;;;;5.07;3.90;;;7.50;99.90;;;;;;5096432;28;20223;-76
2022/12/27 08:59:32;;;;;;;7.03;3.80;;;7.50;99.90;;;;;;5095001;28;20300;-78
2022/12/27 09:01:59;;;;;;;3.65;2.60;;;7.50;99.90;;;;;;5096317;28;20222;-76
2022/12/27 09:04:26;;;;;;;7.35;4.38;;;7.50;99.90;;;;;;5096399;28;20223;-78
2022/12/27 09:06:53;;;;;;;9.15;3.60;;;7.60;99.90;;;;;;5097354;28;20223;-78
2022/12/27 09:09:21;;;;;;;8.98;4.10;;;7.60;99.90;;;;;;5096354;28;20262;-78
2022/12/27 09:11:51;;;;;;;5.38;2.95;;;7.60;99.90;;;;;;5097043;28;20234;-78
2022/12/27 09:14:18;;;;;;;3.83;3.08;;;7.60;99.90;;;;;;5097255;28;20648;-78
2022/12/27 09:16:45;;;;;;;4.32;3.45;;;7.60;99.90;;;;;;5096946;28;20689;-76
2022/12/27 09:19:12;;;;;;;5.40;2.20;;;7.70;99.90;;;;;;5097133;28;20306;-77
2022/12/27 09:21:41;;;;;;;4.00;2.13;;;7.80;99.90;;;;;;5098858;28;20241;-78
2022/12/27 09:24:11;;;;;;;4.13;2.63;;;7.70;99.90;;;;;;5097233;28;20234;-76
2022/12/27 09:26:38;;;;;;;3.65;2.28;;;7.70;99.90;;;;;;5095315;28;20219;-78
2022/12/27 09:29:06;;;;;;;4.65;3.45;;;7.80;99.90;;;;;;5096144;28;20322;-76
2022/12/27 09:31:33;;;;;;;4.55;2.83;;;7.80;99.90;;;;;;5095925;28;20308;-77
2022/12/27 09:34:02;;;;;;;3.25;2.70;;;7.80;99.90;;;;;;5096068;28;20665;-77
2022/12/27 09:36:33;;;;;;;5.40;2.60;;;7.80;99.90;;;;;;5095948;28;20239;-78
2022/12/27 09:39:05;;;;;;;6.88;3.42;;;7.80;99.90;;;;;;5096239;28;20235;-77
2022/12/27 09:41:44;;;;;;;7.72;4.45;;;7.90;99.90;;;;;;5094772;28;20260;-77
2022/12/27 09:44:18;;;;;;;3.83;2.65;;;7.80;99.90;;;;;;5095523;28;20323;-78
2022/12/27 09:46:51;;;;;;;11.18;3.40;;;7.90;99.90;;;;;;5095135;28;20210;-78
2022/12/27 09:49:27;;;;;;;2.67;2.28;;;7.90;99.90;;;;;;5096127;28;20262;-78
2022/12/27 09:52:00;;;;;;;4.75;3.17;;;8.00;99.90;;;;;;5096965;28;20230;-79
2022/12/27 09:54:33;;;;;;;6.10;3.58;;;8.00;99.90;;;;;;5096494;28;20292;-79
2022/12/27 09:57:14;;;;;;;10.43;4.70;;;7.90;99.90;;;;;;5095496;27;20348;-79
2022/12/27 09:59:47;;;;;;;9.52;2.70;;;8.00;99.90;;;;;;5093849;28;20231;-79
2022/12/27 10:02:21;;;;;;;2.63;2.40;;;8.00;99.90;;;;;;5096503;28;20218;-77
2022/12/27 10:04:49;;;;;;;4.53;3.17;;;8.10;99.90;;;;;;5095338;28;20301;-77
2022/12/27 10:07:33;;;;;;;5.70;3.50;;;8.10;99.90;;;;;;5090710;28;20218;-77
2022/12/27 10:10:08;;;;;;;7.60;3.05;;;8.10;99.90;;;;;;5103443;28;20231;-77
2022/12/27 10:13:00;;;;;;;4.43;3.38;;;8.20;99.90;;;;;;5085556;28;20233;-77
2022/12/27 10:15:40;;;;;;;6.20;4.45;;;8.20;99.90;;;;;;5095420;28;20329;-79
2022/12/27 10:18:23;;;;;;;8.10;5.55;;;8.20;99.90;;;;;;5094616;28;20718;-78
2022/12/27 10:21:08;;;;;;;8.88;3.38;;;8.20;99.90;;;;;;5085202;28;20724;-77
2022/12/27 10:23:38;;;;;;;4.60;3.00;;;8.20;99.90;;;;;;5094901;28;20701;-77
2022/12/27 10:26:07;;;;;;;7.68;2.38;;;8.20;99.90;;;;;;5095323;28;20239;-77
2022/12/27 10:28:39;;;;;;;6.45;2.67;;;8.30;99.90;;;;;;5094881;28;20654;-78
2022/12/27 10:31:14;;;;;;;4.97;2.95;;;8.40;99.90;;;;;;5095521;28;20262;-78
2022/12/27 10:33:45;;;;;;;5.38;3.00;;;8.40;99.90;;;;;;5095434;28;20223;-79
2022/12/27 10:36:14;;;;;;;3.22;2.70;;;8.40;99.90;;;;;;5095045;28;20230;-79
2022/12/27 10:38:42;;;;;;;11.57;6.43;;;8.50;99.90;;;;;;5093725;28;20285;-77
2022/12/27 10:41:28;;;;;;;6.03;4.05;;;8.50;99.90;;;;;;5095078;28;20280;-80
2022/12/27 10:43:55;;;;;;;5.75;3.90;;;8.60;99.90;;;;;;5094345;28;20253;-79
2022/12/27 10:46:27;;;;;;;8.30;3.53;;;8.60;99.90;;;;;;5095060;28;20314;-79
2022/12/27 10:48:57;;;;;;;5.57;3.72;;;8.70;99.90;;;;;;5094121;28;20220;-79
2022/12/27 10:51:25;;;;;;;3.63;3.28;;;8.70;99.90;;;;;;5094655;28;20227;-78
2022/12/27 10:53:59;;;;;;;6.60;3.30;;;8.70;99.90;;;;;;5094196;28;20650;-77
2022/12/27 10:56:31;;;;;;;4.45;4.00;;;8.70;99.90;;;;;;5095145;28;20241;-79
2022/12/27 10:59:13;;;;;;;4.47;3.28;;;8.70;99.90;;;;;;5094116;28;20235;-79
2022/12/27 11:01:46;;;;;;;3.15;2.75;;;8.70;99.90;;;;;;5094060;28;20654;-77
2022/12/27 11:04:19;;;;;;;5.45;3.47;;;8.70;99.90;;;;;;5094548;28;20251;-77
2022/12/27 11:06:48;;;;;;;3.95;3.08;;;8.70;99.90;;;;;;5093919;28;20223;-78
2022/12/27 11:09:24;;;;;;;7.57;4.68;;;8.70;99.90;;;;;;5094224;28;20280;-77
2022/12/27 11:12:11;;;;;;;7.45;4.78;;;8.70;99.90;;;;;;5093584;28;20325;-77
2022/12/27 11:14:39;;;;;;;6.05;4.18;;;8.60;99.90;;;;;;5093233;28;20250;-78
2022/12/27 11:17:10;;;;;;;5.72;3.35;;;8.60;99.90;;;;;;5094330;28;20249;-77
2022/12/27 11:19:44;;;;;;;6.80;3.10;;;8.60;99.90;;;;;;5093320;28;20625;-78
2022/12/27 11:22:12;;;;;;;6.22;2.83;;;8.70;99.90;;;;;;5093868;27;20227;-77
2022/12/27 11:24:45;;;;;;;5.53;3.65;;;8.70;99.90;;;;;;5094496;28;20288;-78
2022/12/27 11:27:22;;;;;;;7.47;5.05;;;8.70;99.90;;;;;;5094859;28;20227;-77
2022/12/27 11:29:50;;;;;;;6.45;4.55;;;8.70;99.90;;;;;;5093623;28;20227;-77
2022/12/27 11:32:22;;;;;;;11.07;4.65;;;8.60;99.90;;;;;;5094634;28;20696;-77
2022/12/27 11:34:55;;;;;;;4.90;3.53;;;8.70;99.90;;;;;;5095294;28;20223;-77
2022/12/27 11:37:26;;;;;;;9.43;5.18;;;8.70;99.90;;;;;;5094871;28;20233;-77
2022/12/27 11:40:11;;;;;;;5.70;2.92;;;8.70;99.90;;;;;;5094575;28;20231;-77
2022/12/27 11:42:47;;;;;;;10.00;5.75;;;8.70;99.90;;;;;;5099141;28;20231;-77
2022/12/27 11:45:22;;;;;;;7.63;4.20;;;8.80;99.90;;;;;;5094986;28;20234;-77
2022/12/27 11:47:56;;;;;;;6.22;3.80;;;8.80;99.90;;;;;;5095748;28;20279;-77
2022/12/27 11:50:51;;;;;;;6.15;4.10;;;8.80;99.90;;;;;;5095298;28;20218;-77
2022/12/27 11:53:53;;;;;;;6.90;4.63;;;8.80;99.90;;;;;;5094720;28;20231;-78
2022/12/27 11:56:24;;;;;;;5.03;4.05;;;8.70;99.90;;;;;;5096277;28;20272;-79
2022/12/27 11:59:27;;;;;;;3.72;3.13;;;8.70;99.90;;;;;;5095691;28;20239;-78
2022/12/27 12:02:21;;;;;;;5.95;4.20;;;8.70;99.90;;;;;;5086318;28;20238;-77
2022/12/27 12:05:18;;;;;;;5.13;4.35;;;8.70;99.90;;;;;;5095648;28;20301;-77
2022/12/27 12:08:04;;;;;;;6.07;3.60;;;8.70;99.90;;;;;;5097367;28;20219;-79
2022/12/27 12:10:43;;;;;;;9.35;5.13;;;8.80;99.90;;;;;;5097229;28;20231;-78
2022/12/27 12:13:27;;;;;;;7.90;4.10;;;8.70;99.90;;;;;;5096788;28;20677;-77
2022/12/27 12:16:24;;;;;;;7.95;3.80;;;8.70;99.90;;;;;;5097418;28;20223;-79
2022/12/27 12:19:12;;;;;;;8.25;4.05;;;8.80;99.90;;;;;;5096049;28;20223;-78
2022/12/27 12:21:54;;;;;;;3.88;2.72;;;8.80;99.90;;;;;;5092583;28;20568;-79
2022/12/27 12:24:40;;;;;;;4.68;3.00;;;8.80;99.90;;;;;;5091561;28;20560;-79
2022/12/27 12:27:26;;;;;;;6.43;3.17;;;8.80;99.90;;;;;;5092975;28;20253;-79
2022/12/27 12:30:27;;;;;;;13.50;10.02;;;8.80;99.90;;;;;;5092979;28;20310;-79
2022/12/27 12:33:20;;;;;;;4.38;3.65;;;8.80;99.90;;;;;;5092712;28;20538;-77
2022/12/27 12:35:58;;;;;;;7.60;3.22;;;8.80;99.90;;;;;;5092890;28;20615;-79
2022/12/27 12:38:35;;;;;;;10.00;3.47;;;8.80;99.90;;;;;;5092792;28;20272;-79
2022/12/27 12:41:26;;;;;;;5.55;3.78;;;8.80;99.90;;;;;;5084162;28;20246;-77
2022/12/27 12:44:27;;;;;;;6.50;3.42;;;8.90;99.90;;;;;;5092485;28;20310;-77
2022/12/27 12:47:07;;;;;;;7.20;3.92;;;8.90;99.90;;;;;;5092422;28;20234;-77
2022/12/27 12:49:56;;;;;;;5.20;4.47;;;8.90;99.90;;;;;;5092690;28;20278;-79
2022/12/27 12:52:42;;;;;;;4.18;2.88;;;9.00;99.90;;;;;;5093027;28;20284;-77
2022/12/27 12:55:44;;;;;;;3.58;2.63;;;9.10;99.90;;;;;;5092681;28;20238;-77
2022/12/27 12:58:28;;;;;;;12.35;3.65;;;9.10;99.90;;;;;;5093045;28;20223;-77
2022/12/27 13:01:15;;;;;;;7.40;3.50;;;9.10;99.90;;;;;;5092346;28;20242;-77
2022/12/27 13:04:08;;;;;;;4.88;2.60;;;9.10;99.90;;;;;;5092863;28;20276;-79
2022/12/27 13:06:52;;;;;;;9.20;4.78;;;9.10;99.90;;;;;;5083727;28;20699;-77
2022/12/27 13:09:30;;;;;;;8.43;3.67;;;9.20;99.90;;;;;;5098722;28;20234;-77
2022/12/27 13:12:09;;;;;;;7.78;3.80;;;9.20;99.90;;;;;;5099137;28;20247;-79
2022/12/27 13:15:22;;;;;;;11.20;6.90;;;9.20;99.90;;;;;;5092513;28;20227;-78
2022/12/27 13:18:01;;;;;;;13.98;6.07;;;9.20;99.90;;;;;;5092035;28;20231;-79
2022/12/27 13:20:53;;;;;;;8.77;4.00;;;9.20;99.90;;;;;;5092697;28;20517;-79
2022/12/27 13:23:30;;;;;;;7.85;3.90;;;9.20;99.90;;;;;;5092396;28;20219;-78
2022/12/27 13:26:08;;;;;;;11.93;3.85;;;9.20;99.90;;;;;;5092889;28;20250;-77
2022/12/27 13:28:46;;;;;;;8.15;3.95;;;9.20;99.90;;;;;;5092042;28;20314;-78
2022/12/27 13:31:27;;;;;;;7.63;3.30;;;9.20;99.90;;;;;;5094021;28;20223;-78
2022/12/27 13:34:07;;;;;;;3.95;3.03;;;9.10;99.90;;;;;;5102078;28;20231;-77
2022/12/27 13:36:42;;;;;;;2.80;2.60;;;9.20;99.90;;;;;;5106307;28;20306;-78
2022/12/27 13:39:26;;;;;;;4.78;3.25;;;9.20;99.90;;;;;;5102435;28;20249;-78
2022/12/27 13:42:06;;;;;;;7.88;3.15;;;9.10;99.90;;;;;;5101764;28;20223;-77
2022/12/27 13:44:48;;;;;;;4.68;2.90;;;9.10;99.90;;;;;;5103197;28;20227;-76
2022/12/27 13:47:45;;;;;;;6.97;2.58;;;9.10;99.90;;;;;;5093598;28;20219;-77
2022/12/27 13:50:59;;;;;;;6.97;2.55;;;9.00;99.90;;;;;;5107571;27;20227;-76
2022/12/27 13:54:07;;;;;;;4.07;2.10;;;9.00;99.90;;;;;;5101954;28;20322;-76
2022/12/27 13:56:48;;;;;;;8.75;3.50;;;9.00;99.90;;;;;;5100185;28;20287;-77
2022/12/27 14:00:02;;;;;;;7.85;2.85;;;9.00;99.90;;;;;;5102467;28;20286;-77
2022/12/27 14:03:03;;;;;;;3.38;2.42;;;9.00;99.90;;;;;;5105888;28;20292;-78
2022/12/27 14:06:06;;;;;;;4.13;2.92;;;9.00;99.90;;;;;;5100202;28;20298;-78
2022/12/27 14:09:04;;;;;;;3.47;3.10;;;9.00;99.90;;;;;;5097726;28;20243;-76
2022/12/27 14:11:47;;;;;;;8.05;6.47;;;9.00;99.90;;;;;;5096765;27;20219;-76
2022/12/27 14:14:21;;;;;;;13.05;5.85;;;9.00;99.90;;;;;;5092163;28;20223;-76
2022/12/27 14:17:06;;;;;;;12.73;5.10;;;9.00;99.90;;;;;;5093705;28;20219;-78
2022/12/27 14:19:58;;;;;;;7.22;4.10;;;9.00;99.90;;;;;;5101249;28;20548;-77
2022/12/27 14:22:44;;;;;;;6.07;3.08;;;9.10;99.90;;;;;;5076873;28;20240;-78
2022/12/27 14:26:02;;;;;;;10.30;3.55;;;9.00;99.90;;;;;;5088286;28;20242;-78
2022/12/27 14:29:01;;;;;;;10.90;3.20;;;9.00;99.90;;;;;;5085237;28;20235;-75
2022/12/27 14:32:13;;;;;;;5.72;2.67;;;9.10;99.90;;;;;;5087241;28;20242;-76
2022/12/27 14:35:04;;;;;;;3.33;2.70;;;9.00;99.90;;;;;;5066348;28;20214;-77
2022/12/27 14:37:58;;;;;;;6.00;3.60;;;9.00;99.90;;;;;;5080807;28;20288;-77
2022/12/27 14:41:01;;;;;;;4.95;3.90;;;9.00;99.90;;;;;;5093269;28;20792;-76
2022/12/27 14:43:54;;;;;;;12.85;3.97;;;9.00;99.90;;;;;;5087048;28;20291;-78
2022/12/27 14:46:55;;;;;;;4.43;2.88;;;9.00;99.90;;;;;;5088876;28;20211;-77
2022/12/27 14:49:57;;;;;;;6.05;2.60;;;9.00;99.90;;;;;;5090204;28;20428;-77
2022/12/27 14:53:02;;;;;;;6.32;3.80;;;9.10;99.90;;;;;;5088973;28;20235;-77
2022/12/27 14:55:43;;;;;;;3.80;2.70;;;9.10;99.90;;;;;;5087958;28;20222;-76
2022/12/27 14:58:49;;;;;;;4.65;2.88;;;9.10;99.90;;;;;;5087607;28;20227;-76
2022/12/27 15:01:29;;;;;;;11.73;3.47;;;9.00;99.90;;;;;;5088893;28;20230;-78
2022/12/27 15:04:10;;;;;;;5.57;2.80;;;9.00;99.90;;;;;;5086529;28;20223;-78
2022/12/27 15:06:59;;;;;;;3.25;2.70;;;9.00;99.90;;;;;;5082820;28;20280;-78
2022/12/27 15:09:37;;;;;;;6.38;3.00;;;8.90;99.90;;;;;;5088746;28;20223;-77
2022/12/27 15:12:23;;;;;;;8.15;3.75;;;8.90;99.90;;;;;;5093166;28;20696;-75
2022/12/27 15:15:10;;;;;;;4.85;3.25;;;8.80;99.90;;;;;;5095240;28;20211;-78